createdAt,value
2023-02-16T00:00:26.835Z,100896.97
2023-02-16T00:02:54.084Z,100900.56
2023-02-16T00:05:31.012Z,100896.38
2023-02-16T00:07:59.385Z,100888.66
2023-02-16T00:10:32.732Z,100881.75
2023-02-16T00:13:18.524Z,100874.91
2023-02-16T00:15:45.608Z,100870.69
2023-02-16T00:18:21.506Z,100885.72
2023-02-16T00:20:49.565Z,100896.34
2023-02-16T00:23:16.487Z,100904.31
2023-02-16T00:25:43.583Z,100904.50
2023-02-16T00:28:19.232Z,100899.47
2023-02-16T00:30:47.228Z,100891.03
2023-02-16T00:33:17.844Z,100887.88
2023-02-16T00:35:45.198Z,100900.47
2023-02-16T00:38:13.155Z,100905.19
2023-02-16T00:40:41.563Z,100900.09
2023-02-16T00:43:13.596Z,100887.19
2023-02-16T00:45:40.521Z,100885.69
2023-02-16T00:48:09.530Z,100889.47
2023-02-16T00:50:36.459Z,100880.13
2023-02-16T00:53:03.471Z,100887.31
2023-02-16T00:55:36.333Z,100888.38
2023-02-16T00:58:13.217Z,100892.13
2023-02-16T01:00:56.069Z,100909.84
2023-02-16T01:03:27.141Z,100917.91
2023-02-16T01:06:14.225Z,100919.78
2023-02-16T01:09:00.418Z,100910.34
2023-02-16T01:11:27.593Z,100922.69
2023-02-16T01:13:56.020Z,100922.78
2023-02-16T01:16:51.830Z,100918.50
2023-02-16T01:19:20.120Z,100922.91
2023-02-16T01:21:47.325Z,100913.34
2023-02-16T01:24:14.850Z,100904.66
2023-02-16T01:26:48.897Z,100905.59
2023-02-16T01:29:20.045Z,100908.22
2023-02-16T01:31:50.003Z,100898.66
2023-02-16T01:34:17.121Z,100896.09
2023-02-16T01:36:47.409Z,100895.38
2023-02-16T01:39:19.738Z,100899.13
2023-02-16T01:42:14.017Z,100901.09
2023-02-16T01:44:55.213Z,100903.00
2023-02-16T01:47:49.564Z,100892.56
2023-02-16T01:50:32.066Z,100899.69
2023-02-16T01:53:12.521Z,100896.34
2023-02-16T01:55:46.954Z,100896.50
2023-02-16T01:58:39.692Z,100901.84
2023-02-16T02:01:36.000Z,100888.00
2023-02-16T02:04:57.741Z,100892.41
2023-02-16T02:07:37.825Z,100886.41
2023-02-16T02:10:55.536Z,100884.94
2023-02-16T02:13:45.132Z,100886.03
2023-02-16T02:16:16.405Z,100897.47
2023-02-16T02:18:44.915Z,100887.94
2023-02-16T02:21:47.465Z,100882.78
2023-02-16T02:24:35.453Z,100881.06
2023-02-16T02:27:26.728Z,100872.47
2023-02-16T02:30:18.813Z,100877.81
2023-02-16T02:33:04.792Z,100869.94
2023-02-16T02:35:57.507Z,100863.03
2023-02-16T02:38:55.198Z,100852.72
2023-02-16T02:41:54.139Z,100853.66
2023-02-16T02:44:24.410Z,100853.66
2023-02-16T02:46:51.680Z,100854.88
2023-02-16T02:49:19.606Z,100862.06
2023-02-16T02:51:47.823Z,100856.16
2023-02-16T02:54:38.199Z,100854.00
2023-02-16T02:57:38.662Z,100870.28
2023-02-16T03:00:31.232Z,100877.22
2023-02-16T03:03:06.284Z,100861.50
2023-02-16T03:05:36.167Z,100862.41
2023-02-16T03:08:17.375Z,100867.84
2023-02-16T03:11:11.948Z,100865.41
2023-02-16T03:14:03.396Z,100863.09
2023-02-16T03:16:39.024Z,100864.88
2023-02-16T03:19:27.632Z,100857.84
2023-02-16T03:22:15.700Z,100862.03
2023-02-16T03:25:01.447Z,100855.69
2023-02-16T03:28:01.292Z,100868.69
2023-02-16T03:30:29.855Z,100861.38
2023-02-16T03:32:56.891Z,100863.63
2023-02-16T03:35:24.569Z,100855.53
2023-02-16T03:37:51.668Z,100855.38
2023-02-16T03:40:30.867Z,100861.25
2023-02-16T03:43:04.263Z,100858.34
2023-02-16T03:45:38.343Z,100860.63
2023-02-16T03:48:06.220Z,100859.50
2023-02-16T03:50:33.630Z,100866.25
2023-02-16T03:53:09.247Z,100873.06
2023-02-16T03:55:43.359Z,100872.91
2023-02-16T03:58:14.496Z,100872.91
2023-02-16T04:00:41.625Z,100870.28
2023-02-16T04:03:09.113Z,100873.91
2023-02-16T04:05:36.974Z,100886.09
2023-02-16T04:08:04.651Z,100878.22
2023-02-16T04:10:31.889Z,100877.50
2023-02-16T04:12:58.899Z,100887.16
2023-02-16T04:15:28.796Z,100884.53
2023-02-16T04:17:56.313Z,100875.91
2023-02-16T04:20:30.543Z,100883.13
2023-02-16T04:22:57.854Z,100883.34
2023-02-16T04:25:25.605Z,100871.34
2023-02-16T04:27:53.301Z,100872.28
2023-02-16T04:30:24.473Z,100875.94
2023-02-16T04:32:51.835Z,100878.47
2023-02-16T04:35:19.924Z,100883.72
2023-02-16T04:37:46.936Z,100883.63
2023-02-16T04:40:16.821Z,100887.94
2023-02-16T04:42:45.290Z,100878.28
2023-02-16T04:45:13.082Z,100883.41
2023-02-16T04:47:40.424Z,100880.72
2023-02-16T04:50:08.501Z,100883.13
2023-02-16T04:52:37.616Z,100877.88
2023-02-16T04:55:07.219Z,100871.69
2023-02-16T04:57:34.207Z,100874.22
2023-02-16T05:00:01.177Z,100874.97
2023-02-16T05:02:28.279Z,100868.66
2023-02-16T05:04:55.219Z,100867.53
2023-02-16T05:07:22.181Z,100869.94
2023-02-16T05:09:49.175Z,100877.66
2023-02-16T05:12:34.704Z,100877.53
2023-02-16T05:15:01.686Z,100876.47
2023-02-16T05:17:29.631Z,100874.81
2023-02-16T05:19:59.192Z,100883.63
2023-02-16T05:22:28.854Z,100876.69
2023-02-16T05:24:55.835Z,100884.56
2023-02-16T05:27:26.540Z,100875.84
2023-02-16T05:29:53.703Z,100885.41
2023-02-16T05:32:21.521Z,100891.50
2023-02-16T05:34:48.550Z,100874.81
2023-02-16T05:37:17.547Z,100886.97
2023-02-16T05:39:45.884Z,100875.53
2023-02-16T05:42:13.338Z,100885.97
2023-02-16T05:44:40.256Z,100887.66
2023-02-16T05:47:07.572Z,100878.81
2023-02-16T05:49:34.585Z,100882.28
2023-02-16T05:52:02.454Z,100874.41
2023-02-16T05:54:29.701Z,100870.94
2023-02-16T05:56:56.771Z,100875.25
2023-02-16T05:59:24.007Z,100887.25
2023-02-16T06:01:52.394Z,100887.75
2023-02-16T06:04:21.428Z,100891.03
2023-02-16T06:06:48.855Z,100892.53
2023-02-16T06:09:16.158Z,100900.94
2023-02-16T06:11:43.484Z,100885.94
2023-02-16T06:14:19.956Z,100900.53
2023-02-16T06:16:50.000Z,100901.47
2023-02-16T06:19:19.202Z,100897.06
2023-02-16T06:21:46.962Z,100901.47
2023-02-16T06:24:14.638Z,100901.47
2023-02-16T06:26:42.073Z,100910.19
2023-02-16T06:29:10.191Z,100907.69
2023-02-16T06:31:37.358Z,100907.69
2023-02-16T06:34:05.246Z,100909.34
2023-02-16T06:36:33.186Z,100916.28
2023-02-16T06:39:00.274Z,100924.09
2023-02-16T06:41:37.679Z,100922.09
2023-02-16T06:44:08.951Z,100913.25
2023-02-16T06:46:35.993Z,100922.81
2023-02-16T06:49:22.100Z,100921.78
2023-02-16T06:52:04.618Z,100917.38
2023-02-16T06:54:31.573Z,100928.72
2023-02-16T06:56:58.508Z,100916.44
2023-02-16T06:59:25.520Z,100916.53
2023-02-16T07:01:52.433Z,100916.44
2023-02-16T07:04:19.439Z,100913.69
2023-02-16T07:07:04.890Z,100924.97
2023-02-16T07:09:51.126Z,100938.72
2023-02-16T07:12:36.568Z,100950.91
2023-02-16T07:15:23.054Z,100946.41
2023-02-16T07:17:50.021Z,100934.00
2023-02-16T07:20:18.418Z,100943.47
2023-02-16T07:22:45.364Z,100928.34
2023-02-16T07:25:12.284Z,100946.53
2023-02-16T07:27:39.205Z,100942.75
2023-02-16T07:30:08.794Z,100948.75
2023-02-16T07:32:35.750Z,100951.19
2023-02-16T07:35:02.772Z,100948.34
2023-02-16T07:37:29.869Z,100952.53
2023-02-16T07:39:57.424Z,100946.97
2023-02-16T07:42:24.364Z,100942.13
2023-02-16T07:44:52.206Z,100945.31
2023-02-16T07:47:19.120Z,100950.25
2023-02-16T07:49:46.186Z,100947.09
2023-02-16T07:52:13.226Z,100941.50
2023-02-16T07:54:40.240Z,100948.97
2023-02-16T07:57:07.637Z,100952.88
2023-02-16T07:59:34.647Z,100942.75
2023-02-16T08:02:01.709Z,100954.66
2023-02-16T08:04:28.692Z,100951.47
2023-02-16T08:06:55.593Z,100943.56
2023-02-16T08:09:22.556Z,100943.13
2023-02-16T08:11:49.497Z,100934.81
2023-02-16T08:14:16.551Z,100945.75
2023-02-16T08:16:43.622Z,100947.00
2023-02-16T08:19:13.038Z,100949.06
2023-02-16T08:21:40.274Z,100953.91
2023-02-16T08:24:08.752Z,100949.97
2023-02-16T08:26:39.852Z,100951.09
2023-02-16T08:29:09.908Z,100958.44
2023-02-16T08:31:38.119Z,100958.00
2023-02-16T08:34:06.067Z,100969.69
2023-02-16T08:36:38.379Z,100963.00
2023-02-16T08:39:15.186Z,100969.38
2023-02-16T08:41:44.602Z,100960.91
2023-02-16T08:44:13.166Z,100962.97
2023-02-16T08:46:43.775Z,100957.09
2023-02-16T08:49:12.538Z,100957.47
2023-02-16T08:51:46.229Z,100955.13
2023-02-16T08:54:24.267Z,100961.50
2023-02-16T08:56:51.187Z,100963.66
2023-02-16T08:59:20.762Z,100962.38
2023-02-16T09:01:48.533Z,100963.69
2023-02-16T09:04:18.986Z,100974.72
2023-02-16T09:06:48.313Z,100971.63
2023-02-16T09:09:15.891Z,100975.47
2023-02-16T09:11:42.846Z,100972.34
2023-02-16T09:14:10.432Z,100968.25
2023-02-16T09:16:39.787Z,100954.72
2023-02-16T09:19:07.193Z,100952.44
2023-02-16T09:21:34.297Z,100949.19
2023-02-16T09:24:04.471Z,100944.13
2023-02-16T09:26:35.068Z,100947.13
2023-02-16T09:29:03.487Z,100951.91
2023-02-16T09:31:35.252Z,100960.19
2023-02-16T09:34:13.996Z,100967.63
2023-02-16T09:36:41.383Z,100962.00
2023-02-16T09:39:08.355Z,100962.34
2023-02-16T09:41:56.646Z,100966.38
2023-02-16T09:44:33.385Z,100966.72
2023-02-16T09:47:04.853Z,100951.47
2023-02-16T09:49:45.016Z,100959.75
2023-02-16T09:52:42.328Z,100968.59
2023-02-16T09:55:18.501Z,100969.06
2023-02-16T09:58:16.731Z,100975.53
2023-02-16T10:00:57.894Z,100967.78
2023-02-16T10:03:41.259Z,100966.91
2023-02-16T10:06:14.141Z,100963.63
2023-02-16T10:08:47.760Z,100961.16
2023-02-16T10:11:46.486Z,100953.44
2023-02-16T10:14:43.660Z,100954.09
2023-02-16T10:17:33.361Z,100946.06
2023-02-16T10:20:41.815Z,100946.81
2023-02-16T10:23:46.485Z,100941.16
2023-02-16T10:26:20.801Z,100942.06
2023-02-16T10:28:58.741Z,100935.81
2023-02-16T10:31:43.503Z,100934.72
2023-02-16T10:34:56.032Z,100930.31
2023-02-16T10:37:49.024Z,100929.50
2023-02-16T10:40:25.883Z,100927.72
2023-02-16T10:43:05.476Z,100931.34
2023-02-16T10:45:56.430Z,100938.75
2023-02-16T10:48:24.611Z,100930.09
2023-02-16T10:51:16.606Z,100929.56
2023-02-16T10:54:00.472Z,100933.03
2023-02-16T10:56:59.416Z,100936.22
2023-02-16T10:59:46.023Z,100938.44
2023-02-16T11:02:36.510Z,100933.97
2023-02-16T11:05:26.183Z,100926.78
2023-02-16T11:08:01.414Z,100922.56
2023-02-16T11:10:50.344Z,100910.78
2023-02-16T11:13:34.202Z,100917.16
2023-02-16T11:16:13.779Z,100917.34
2023-02-16T11:18:45.545Z,100904.41
2023-02-16T11:21:13.274Z,100898.59
2023-02-16T11:23:42.976Z,100898.38
2023-02-16T11:26:10.089Z,100900.66
2023-02-16T11:28:44.630Z,100897.78
2023-02-16T11:31:36.204Z,100891.09
2023-02-16T11:34:14.051Z,100881.28
2023-02-16T11:36:44.211Z,100878.22
2023-02-16T11:39:14.213Z,100882.47
2023-02-16T11:41:53.707Z,100881.59
2023-02-16T11:44:43.360Z,100874.00
2023-02-16T11:47:37.515Z,100860.41
2023-02-16T11:50:29.189Z,100858.78
2023-02-16T11:53:10.004Z,100858.13
2023-02-16T11:55:41.738Z,100859.09
2023-02-16T11:58:19.490Z,100845.47
2023-02-16T12:01:10.046Z,100837.97
2023-02-16T12:04:06.240Z,100836.00
2023-02-16T12:06:57.523Z,100831.16
2023-02-16T12:09:50.961Z,100823.50
2023-02-16T12:12:45.201Z,100828.38
2023-02-16T12:15:39.505Z,100825.53
2023-02-16T12:18:32.349Z,100821.91
2023-02-16T12:21:06.884Z,100819.91
2023-02-16T12:24:23.172Z,100822.72
2023-02-16T12:27:12.538Z,100821.06
2023-02-16T12:29:59.168Z,100813.22
2023-02-16T12:33:00.979Z,100809.91
2023-02-16T12:36:27.230Z,100814.41
2023-02-16T12:38:59.776Z,100806.03
2023-02-16T12:42:08.292Z,100794.97
2023-02-16T12:44:59.393Z,100789.56
2023-02-16T12:47:50.808Z,100787.19
2023-02-16T12:50:27.621Z,100782.16
2023-02-16T12:53:04.156Z,100782.63
2023-02-16T12:55:45.746Z,100777.91
2023-02-16T12:58:41.838Z,100781.50
2023-02-16T13:01:23.626Z,100774.75
2023-02-16T13:04:38.645Z,100776.97
2023-02-16T13:07:20.890Z,100775.25
2023-02-16T13:10:04.553Z,100778.44
2023-02-16T13:12:51.936Z,100770.25
2023-02-16T13:15:43.780Z,100776.91
2023-02-16T13:18:35.925Z,100764.09
2023-02-16T13:21:11.028Z,100767.09
2023-02-16T13:24:07.886Z,100769.16
2023-02-16T13:27:06.127Z,100750.81
2023-02-16T13:30:20.635Z,100758.84
2023-02-16T13:32:56.712Z,100753.22
2023-02-16T13:36:10.864Z,100748.97
2023-02-16T13:39:09.705Z,100744.28
2023-02-16T13:42:12.300Z,100748.16
2023-02-16T13:44:54.346Z,100736.78
2023-02-16T13:47:30.518Z,100741.31
2023-02-16T13:50:03.867Z,100742.50
2023-02-16T13:52:36.919Z,100740.84
2023-02-16T13:55:21.478Z,100729.69
2023-02-16T13:57:50.881Z,100726.34
2023-02-16T14:00:47.735Z,100718.13
2023-02-16T14:03:17.638Z,100715.63
2023-02-16T14:05:48.701Z,100716.00
2023-02-16T14:08:24.520Z,100705.28
2023-02-16T14:10:54.119Z,100708.16
2023-02-16T14:13:39.336Z,100706.13
2023-02-16T14:16:27.864Z,100711.47
2023-02-16T14:19:02.385Z,100712.69
2023-02-16T14:21:44.030Z,100703.44
2023-02-16T14:24:35.650Z,100707.22
2023-02-16T14:27:09.428Z,100709.44
2023-02-16T14:30:03.281Z,100697.72
2023-02-16T14:32:38.441Z,100689.84
2023-02-16T14:35:23.914Z,100686.16
2023-02-16T14:37:58.954Z,100693.56
2023-02-16T14:40:34.836Z,100689.22
2023-02-16T14:43:31.447Z,100693.75
2023-02-16T14:46:25.897Z,100684.41
2023-02-16T14:49:25.738Z,100686.81
2023-02-16T14:52:39.564Z,100684.69
2023-02-16T14:55:56.940Z,100682.34
2023-02-16T14:58:35.813Z,100692.63
2023-02-16T15:01:13.547Z,100702.03
2023-02-16T15:03:58.008Z,100695.00
2023-02-16T15:06:47.505Z,100690.88
2023-02-16T15:09:27.765Z,100689.38
2023-02-16T15:12:18.057Z,100692.41
2023-02-16T15:14:51.581Z,100685.56
2023-02-16T15:17:48.477Z,100680.41
2023-02-16T15:20:21.548Z,100679.13
2023-02-16T15:23:16.957Z,100669.59
2023-02-16T15:26:00.899Z,100669.13
2023-02-16T15:28:34.148Z,100676.50
2023-02-16T15:31:17.924Z,100671.53
2023-02-16T15:33:56.709Z,100670.88
2023-02-16T15:36:36.427Z,100685.44
2023-02-16T15:39:13.508Z,100676.91
2023-02-16T15:41:48.479Z,100676.25
2023-02-16T15:44:34.171Z,100672.94
2023-02-16T15:47:13.948Z,100679.50
2023-02-16T15:49:41.627Z,100685.38
2023-02-16T15:52:16.139Z,100676.69
2023-02-16T15:54:44.151Z,100671.88
2023-02-16T15:57:36.626Z,100671.06
2023-02-16T16:00:20.622Z,100661.91
2023-02-16T16:02:58.294Z,100663.75
2023-02-16T16:05:32.985Z,100661.44
2023-02-16T16:08:01.446Z,100664.44
2023-02-16T16:10:39.605Z,100662.97
2023-02-16T16:13:26.470Z,100668.34
2023-02-16T16:16:01.469Z,100672.19
2023-02-16T16:18:39.386Z,100673.19
2023-02-16T16:21:19.561Z,100668.84
2023-02-16T16:24:18.707Z,100677.72
2023-02-16T16:26:55.635Z,100674.38
2023-02-16T16:29:49.036Z,100667.38
2023-02-16T16:32:29.802Z,100669.38
2023-02-16T16:34:57.000Z,100672.25
2023-02-16T16:37:35.635Z,100668.09
2023-02-16T16:40:26.354Z,100671.78
2023-02-16T16:43:02.323Z,100678.97
2023-02-16T16:45:52.050Z,100675.63
2023-02-16T16:48:37.243Z,100678.66
2023-02-16T16:51:39.435Z,100683.19
2023-02-16T16:54:30.635Z,100678.19
2023-02-16T16:56:57.696Z,100671.34
2023-02-16T16:59:24.639Z,100685.91
2023-02-16T17:01:52.769Z,100685.06
2023-02-16T17:04:21.968Z,100683.41
2023-02-16T17:06:49.128Z,100687.28
2023-02-16T17:09:16.955Z,100687.44
2023-02-16T17:11:44.050Z,100690.28
2023-02-16T17:14:17.140Z,100696.63
2023-02-16T17:16:53.108Z,100704.84
2023-02-16T17:19:22.950Z,100698.84
2023-02-16T17:21:49.986Z,100708.69
2023-02-16T17:24:17.377Z,100703.50
2023-02-16T17:26:44.368Z,100702.03
2023-02-16T17:29:11.330Z,100699.53
2023-02-16T17:31:38.349Z,100700.72
2023-02-16T17:34:05.280Z,100698.22
2023-02-16T17:36:32.434Z,100702.72
2023-02-16T17:38:59.391Z,100697.56
2023-02-16T17:41:29.156Z,100704.09
2023-02-16T17:43:56.154Z,100699.91
2023-02-16T17:46:23.831Z,100704.63
2023-02-16T17:48:53.860Z,100703.13
2023-02-16T17:51:24.368Z,100704.28
2023-02-16T17:53:53.330Z,100706.31
2023-02-16T17:56:23.011Z,100703.97
2023-02-16T17:58:51.107Z,100711.34
2023-02-16T18:01:19.444Z,100704.53
2023-02-16T18:03:46.752Z,100708.34
2023-02-16T18:06:20.126Z,100697.19
2023-02-16T18:08:47.516Z,100708.22
2023-02-16T18:11:14.472Z,100706.91
2023-02-16T18:13:41.401Z,100698.22
2023-02-16T18:16:10.479Z,100707.22
2023-02-16T18:18:39.212Z,100706.75
2023-02-16T18:21:06.839Z,100705.09
2023-02-16T18:23:34.947Z,100712.44
2023-02-16T18:26:03.631Z,100712.59
2023-02-16T18:28:33.664Z,100712.78
2023-02-16T18:31:04.552Z,100709.47
2023-02-16T18:33:31.924Z,100711.44
2023-02-16T18:35:58.962Z,100711.81
2023-02-16T18:38:26.133Z,100711.31
2023-02-16T18:40:54.682Z,100707.16
2023-02-16T18:43:23.128Z,100708.16
2023-02-16T18:45:50.635Z,100705.81
2023-02-16T18:48:17.684Z,100711.16
2023-02-16T18:50:44.791Z,100703.31
2023-02-16T18:53:11.887Z,100716.84
2023-02-16T18:55:39.052Z,100707.00
2023-02-16T18:58:08.318Z,100704.50
2023-02-16T19:00:36.637Z,100701.94
2023-02-16T19:03:04.373Z,100696.59
2023-02-16T19:05:32.243Z,100695.78
2023-02-16T19:07:59.629Z,100695.78
2023-02-16T19:10:27.472Z,100694.13
2023-02-16T19:12:54.392Z,100689.78
2023-02-16T19:15:21.413Z,100696.13
2023-02-16T19:17:48.644Z,100697.13
2023-02-16T19:20:18.384Z,100690.78
2023-02-16T19:22:49.309Z,100688.31
2023-02-16T19:25:16.362Z,100689.97
2023-02-16T19:27:44.769Z,100690.97
2023-02-16T19:30:12.948Z,100694.47
2023-02-16T19:32:41.113Z,100695.13
2023-02-16T19:35:12.071Z,100692.47
2023-02-16T19:37:39.297Z,100699.47
2023-02-16T19:40:09.035Z,100700.13
2023-02-16T19:42:37.187Z,100701.94
2023-02-16T19:45:04.783Z,100701.94
2023-02-16T19:47:31.819Z,100704.50
2023-02-16T19:49:58.740Z,100704.31
2023-02-16T19:52:25.867Z,100708.66
2023-02-16T19:54:52.809Z,100709.50
2023-02-16T19:57:20.222Z,100711.84
2023-02-16T19:59:47.187Z,100711.66
2023-02-16T20:02:15.433Z,100708.81
2023-02-16T20:04:44.554Z,100705.13
2023-02-16T20:07:11.587Z,100716.63
2023-02-16T20:09:38.825Z,100720.81
2023-02-16T20:12:06.498Z,100727.81
2023-02-16T20:14:33.768Z,100724.97
2023-02-16T20:17:00.768Z,100721.47
2023-02-16T20:19:27.737Z,100720.47
2023-02-16T20:21:54.764Z,100727.28
2023-02-16T20:24:21.815Z,100732.47
2023-02-16T20:26:51.227Z,100734.16
2023-02-16T20:29:18.260Z,100727.78
2023-02-16T20:31:55.649Z,100721.44
2023-02-16T20:34:25.806Z,100716.09
2023-02-16T20:36:53.853Z,100714.44
2023-02-16T20:39:22.122Z,100710.78
2023-02-16T20:41:49.616Z,100712.44
2023-02-16T20:44:17.132Z,100700.25
2023-02-16T20:46:44.615Z,100698.25
2023-02-16T20:49:13.343Z,100702.75
2023-02-16T20:51:41.352Z,100694.75
2023-02-16T20:54:08.987Z,100700.91
2023-02-16T20:56:36.318Z,100699.06
2023-02-16T20:59:04.466Z,100697.41
2023-02-16T21:01:46.415Z,100694.75
2023-02-16T21:04:17.721Z,100698.25
2023-02-16T21:06:45.165Z,100706.25
2023-02-16T21:09:12.253Z,100699.25
2023-02-16T21:11:39.894Z,100700.09
2023-02-16T21:14:08.652Z,100697.41
2023-02-16T21:16:36.586Z,100690.41
2023-02-16T21:19:09.296Z,100690.41
2023-02-16T21:21:44.235Z,100693.09
2023-02-16T21:24:11.299Z,100687.94
2023-02-16T21:26:38.261Z,100695.09
2023-02-16T21:29:05.369Z,100682.75
2023-02-16T21:31:32.513Z,100675.72
2023-02-16T21:33:59.615Z,100674.91
2023-02-16T21:36:27.431Z,100680.41
2023-02-16T21:38:54.819Z,100677.09
2023-02-16T21:41:27.660Z,100684.28
2023-02-16T21:44:00.934Z,100677.28
2023-02-16T21:46:37.280Z,100674.75
2023-02-16T21:49:07.338Z,100671.44
2023-02-16T21:51:37.495Z,100667.09
2023-02-16T21:54:13.117Z,100668.94
2023-02-16T21:56:52.846Z,100660.09
2023-02-16T21:59:22.582Z,100667.28
2023-02-16T22:01:51.561Z,100670.09
2023-02-16T22:04:21.777Z,100661.25
2023-02-16T22:06:50.737Z,100672.13
2023-02-16T22:09:22.092Z,100663.28
2023-02-16T22:11:50.306Z,100663.44
2023-02-16T22:14:17.519Z,100661.78
2023-02-16T22:16:46.362Z,100660.09
2023-02-16T22:19:16.213Z,100660.09
2023-02-16T22:21:45.298Z,100656.75
2023-02-16T22:24:14.453Z,100660.44
2023-02-16T22:26:41.656Z,100652.59
2023-02-16T22:29:09.628Z,100656.09
2023-02-16T22:31:37.425Z,100650.09
2023-02-16T22:34:11.606Z,100645.75
2023-02-16T22:36:38.636Z,100651.09
2023-02-16T22:39:06.479Z,100646.75
2023-02-16T22:41:34.634Z,100641.41
2023-02-16T22:44:01.607Z,100639.94
2023-02-16T22:46:30.007Z,100630.25
2023-02-16T22:48:58.872Z,100638.41
2023-02-16T22:51:27.974Z,100634.91
2023-02-16T22:53:57.736Z,100639.44
2023-02-16T22:56:26.771Z,100648.25
2023-02-16T22:58:57.352Z,100645.78
2023-02-16T23:01:26.601Z,100650.28
2023-02-16T23:03:57.238Z,100637.94
2023-02-16T23:06:34.135Z,100647.78
2023-02-16T23:09:08.037Z,100654.97
2023-02-16T23:11:36.246Z,100653.31
2023-02-16T23:14:04.087Z,100655.78
2023-02-16T23:16:31.574Z,100650.47
2023-02-16T23:19:00.071Z,100649.63
2023-02-16T23:21:30.428Z,100649.63
2023-02-16T23:23:58.899Z,100654.13
2023-02-16T23:26:30.736Z,100655.97
2023-02-16T23:29:01.576Z,100660.31
2023-02-16T23:31:33.405Z,100656.81
2023-02-16T23:34:02.615Z,100648.78
2023-02-16T23:36:31.416Z,100646.13
2023-02-16T23:39:04.092Z,100658.47
2023-02-16T23:41:31.001Z,100658.63
2023-02-16T23:44:00.038Z,100651.47
2023-02-16T23:46:28.264Z,100645.31
2023-02-16T23:48:55.304Z,100640.78
2023-02-16T23:51:22.363Z,100646.13
2023-02-16T23:53:49.877Z,100646.97
2023-02-16T23:56:21.447Z,100636.28
2023-02-16T23:58:49.573Z,100636.28
